createdAt,value
2018-08-11T00:01:39.184Z,81.50
2018-08-11T00:04:07.385Z,81.80
2018-08-11T00:06:35.626Z,81.70
2018-08-11T00:09:05.604Z,82.00
2018-08-11T00:11:33.776Z,82.00
2018-08-11T00:14:01.984Z,83.10
2018-08-11T00:16:30.175Z,82.60
2018-08-11T00:18:58.360Z,82.60
2018-08-11T00:21:26.596Z,83.00
2018-08-11T00:23:54.878Z,82.90
2018-08-11T00:26:23.084Z,83.40
2018-08-11T00:28:51.269Z,84.00
2018-08-11T00:31:19.434Z,84.00
2018-08-11T00:33:47.616Z,84.30
2018-08-11T00:36:15.844Z,84.30
2018-08-11T00:38:44.045Z,84.60
2018-08-11T00:41:12.237Z,84.30
2018-08-11T00:43:40.424Z,84.60
2018-08-11T00:46:08.632Z,84.50
2018-08-11T00:48:36.809Z,84.70
2018-08-11T00:51:05.252Z,85.40
2018-08-11T00:53:33.425Z,85.30
2018-08-11T00:56:01.596Z,85.70
2018-08-11T00:58:29.761Z,88.90
2018-08-11T01:00:57.996Z,90.60
2018-08-11T01:03:26.156Z,91.20
2018-08-11T01:05:54.334Z,91.60
2018-08-11T01:08:22.506Z,92.30
2018-08-11T01:10:50.737Z,93.30
2018-08-11T01:13:18.908Z,93.60
2018-08-11T01:15:47.268Z,94.20
2018-08-11T01:18:15.669Z,94.80
2018-08-11T01:20:45.103Z,95.90
2018-08-11T01:23:13.280Z,95.90
2018-08-11T01:25:41.460Z,96.80
2018-08-11T01:28:09.645Z,98.20
2018-08-11T01:30:37.827Z,99.90
2018-08-11T01:33:06.025Z,99.90
2018-08-11T01:35:34.203Z,99.90
2018-08-11T01:38:02.380Z,99.90
2018-08-11T01:40:30.559Z,99.90
2018-08-11T01:42:59.921Z,99.90
2018-08-11T01:45:28.188Z,99.90
2018-08-11T01:47:56.856Z,99.90
2018-08-11T01:50:25.092Z,99.90
2018-08-11T01:52:53.280Z,99.90
2018-08-11T01:55:21.566Z,99.90
2018-08-11T01:57:49.742Z,99.90
2018-08-11T02:00:18.124Z,99.90
2018-08-11T02:02:46.340Z,99.90
2018-08-11T02:05:14.549Z,99.90
2018-08-11T02:07:43.535Z,99.90
2018-08-11T02:10:14.376Z,99.90
2018-08-11T02:12:42.685Z,99.90
2018-08-11T02:15:12.596Z,99.90
2018-08-11T02:17:40.802Z,99.90
2018-08-11T02:20:11.892Z,99.90
2018-08-11T02:22:40.368Z,99.90
2018-08-11T02:25:09.363Z,99.90
2018-08-11T02:27:37.730Z,99.90
2018-08-11T02:30:07.874Z,99.90
2018-08-11T02:32:36.040Z,99.90
2018-08-11T02:35:05.105Z,99.90
2018-08-11T02:37:33.304Z,99.90
2018-08-11T02:40:01.778Z,99.90
2018-08-11T02:42:30.229Z,99.90
2018-08-11T02:44:58.463Z,99.90
2018-08-11T02:47:26.664Z,99.90
2018-08-11T02:49:54.841Z,99.90
2018-08-11T02:52:23.063Z,99.90
2018-08-11T02:54:51.239Z,99.90
2018-08-11T02:57:19.408Z,99.90
2018-08-11T02:59:47.599Z,99.90
2018-08-11T03:02:15.774Z,99.90
2018-08-11T03:04:43.974Z,99.90
2018-08-11T03:07:12.197Z,99.90
2018-08-11T03:09:40.368Z,99.90
2018-08-11T03:13:11.944Z,99.90
2018-08-11T03:15:41.149Z,99.90
2018-08-11T03:18:09.349Z,99.90
2018-08-11T03:20:37.528Z,99.90
2018-08-11T03:23:05.918Z,99.90
2018-08-11T03:25:34.100Z,99.90
2018-08-11T03:28:02.288Z,99.90
2018-08-11T03:30:31.562Z,99.90
2018-08-11T03:32:59.737Z,99.90
2018-08-11T03:35:27.932Z,99.90
2018-08-11T03:37:56.128Z,99.90
2018-08-11T03:40:24.326Z,99.90
2018-08-11T03:42:52.495Z,99.90
2018-08-11T03:45:20.688Z,99.90
2018-08-11T03:47:48.860Z,99.90
2018-08-11T03:50:17.049Z,99.90
2018-08-11T03:52:45.255Z,99.90
2018-08-11T03:55:13.442Z,99.90
2018-08-11T03:57:41.648Z,99.90
2018-08-11T04:00:11.089Z,99.90
2018-08-11T04:02:39.287Z,99.90
2018-08-11T04:05:07.459Z,99.90
2018-08-11T04:07:35.626Z,99.90
2018-08-11T04:10:04.669Z,99.90
2018-08-11T04:12:32.859Z,99.90
2018-08-11T04:15:01.029Z,99.90
2018-08-11T04:17:38.396Z,99.90
2018-08-11T04:20:07.533Z,99.90
2018-08-11T04:22:35.700Z,99.90
2018-08-11T04:25:04.372Z,99.90
2018-08-11T04:27:32.548Z,99.90
2018-08-11T04:30:00.742Z,99.90
2018-08-11T04:32:28.904Z,99.90
2018-08-11T04:34:57.154Z,99.90
2018-08-11T04:37:25.442Z,99.90
2018-08-11T04:39:53.609Z,99.90
2018-08-11T04:42:21.893Z,99.90
2018-08-11T04:44:50.057Z,99.90
2018-08-11T04:47:18.273Z,99.90
2018-08-11T04:49:46.512Z,99.90
2018-08-11T04:52:14.704Z,99.90
2018-08-11T04:54:42.869Z,99.90
2018-08-11T04:57:11.036Z,99.90
2018-08-11T04:59:39.259Z,99.90
2018-08-11T05:02:07.557Z,99.90
2018-08-11T05:04:35.728Z,99.90
2018-08-11T05:07:03.899Z,99.90
2018-08-11T05:09:32.088Z,99.90
2018-08-11T05:12:00.264Z,99.90
2018-08-11T05:14:28.444Z,99.90
2018-08-11T05:16:56.622Z,99.90
2018-08-11T05:19:25.684Z,99.90
2018-08-11T05:21:54.061Z,99.90
2018-08-11T05:24:22.237Z,99.90
2018-08-11T05:26:50.408Z,99.90
2018-08-11T05:29:18.656Z,99.90
2018-08-11T05:31:46.832Z,99.90
2018-08-11T05:34:14.997Z,99.90
2018-08-11T05:36:43.176Z,99.90
2018-08-11T05:39:13.272Z,99.90
2018-08-11T05:41:41.507Z,99.90
2018-08-11T05:44:09.662Z,99.90
2018-08-11T05:46:38.515Z,99.90
2018-08-11T05:49:06.956Z,99.90
2018-08-11T05:51:35.148Z,99.90
2018-08-11T05:54:03.335Z,99.90
2018-08-11T05:56:31.509Z,99.90
2018-08-11T05:58:59.686Z,99.90
2018-08-11T06:01:27.862Z,99.90
2018-08-11T06:03:56.244Z,99.90
2018-08-11T06:06:24.432Z,99.90
2018-08-11T06:08:52.627Z,99.90
2018-08-11T06:11:20.808Z,99.90
2018-08-11T06:13:48.987Z,99.90
2018-08-11T06:16:17.155Z,99.90
2018-08-11T06:18:45.336Z,99.90
2018-08-11T06:21:13.591Z,99.90
2018-08-11T06:23:41.684Z,99.90
2018-08-11T06:26:09.863Z,99.90
2018-08-11T06:28:38.052Z,99.90
2018-08-11T06:31:06.427Z,99.90
2018-08-11T06:33:34.725Z,99.90
2018-08-11T06:36:02.904Z,99.90
2018-08-11T06:38:31.080Z,99.90
2018-08-11T06:40:59.363Z,99.90
2018-08-11T06:43:27.421Z,99.90
2018-08-11T06:46:00.522Z,99.90
2018-08-11T06:48:28.698Z,99.90
2018-08-11T06:50:56.849Z,99.90
2018-08-11T06:53:25.024Z,99.90
2018-08-11T06:55:53.185Z,99.90
2018-08-11T06:58:21.372Z,99.90
2018-08-11T07:00:49.852Z,99.90
2018-08-11T07:03:18.024Z,99.90
2018-08-11T07:05:46.300Z,99.90
2018-08-11T07:08:14.474Z,99.90
2018-08-11T07:10:42.739Z,99.90
2018-08-11T07:13:10.876Z,99.90
2018-08-11T07:15:39.646Z,99.90
2018-08-11T07:18:07.848Z,99.90
2018-08-11T07:20:36.027Z,99.90
2018-08-11T07:23:04.192Z,99.90
2018-08-11T07:25:32.576Z,99.90
2018-08-11T07:28:00.748Z,99.90
2018-08-11T07:30:28.932Z,99.90
2018-08-11T07:32:57.095Z,99.70
2018-08-11T07:35:25.281Z,99.30
2018-08-11T07:37:53.460Z,98.50
2018-08-11T07:40:21.731Z,98.10
2018-08-11T07:42:50.119Z,97.60
2018-08-11T07:45:18.283Z,97.50
2018-08-11T07:47:46.477Z,96.60
2018-08-11T07:50:14.700Z,96.20
2018-08-11T07:52:42.979Z,96.00
2018-08-11T07:55:11.136Z,95.60
2018-08-11T07:57:39.349Z,95.60
2018-08-11T08:00:12.084Z,95.50
2018-08-11T08:02:40.788Z,95.10
2018-08-11T08:05:09.353Z,94.60
2018-08-11T08:07:37.515Z,94.10
2018-08-11T08:10:06.309Z,92.50
2018-08-11T08:12:34.468Z,91.60
2018-08-11T08:15:03.007Z,91.40
2018-08-11T08:17:31.172Z,91.70
2018-08-11T08:19:59.356Z,91.90
2018-08-11T08:22:28.131Z,91.90
2018-08-11T08:24:56.436Z,89.00
2018-08-11T08:27:24.893Z,88.80
2018-08-11T08:29:53.929Z,88.80
2018-08-11T08:32:22.426Z,89.70
2018-08-11T08:34:50.591Z,89.00
2018-08-11T08:37:18.761Z,88.70
2018-08-11T08:39:46.948Z,90.10
2018-08-11T08:42:15.317Z,88.30
2018-08-11T08:44:43.552Z,86.40
2018-08-11T08:47:11.757Z,85.70
2018-08-11T08:49:39.989Z,85.70
2018-08-11T08:52:08.184Z,84.50
2018-08-11T08:54:36.354Z,84.90
2018-08-11T08:57:04.529Z,85.80
2018-08-11T08:59:32.757Z,86.00
2018-08-11T09:02:00.929Z,86.30
2018-08-11T09:04:29.365Z,85.40
2018-08-11T09:06:57.537Z,84.40
2018-08-11T09:09:25.729Z,84.40
2018-08-11T09:11:53.964Z,83.40
2018-08-11T09:14:22.163Z,81.70
2018-08-11T09:16:50.337Z,79.70
2018-08-11T09:19:18.524Z,78.40
2018-08-11T09:21:46.693Z,78.30
2018-08-11T09:24:14.867Z,77.20
2018-08-11T09:26:43.067Z,76.30
2018-08-11T09:29:11.689Z,75.90
2018-08-11T09:31:39.844Z,76.60
2018-08-11T09:34:08.028Z,74.90
2018-08-11T09:36:36.240Z,70.50
2018-08-11T09:39:07.065Z,72.00
2018-08-11T09:41:35.228Z,70.00
2018-08-11T09:44:03.412Z,68.20
2018-08-11T09:46:31.592Z,71.20
2018-08-11T09:48:59.793Z,68.90
2018-08-11T09:51:27.990Z,70.90
2018-08-11T09:53:56.160Z,72.10
2018-08-11T09:56:24.344Z,70.60
2018-08-11T09:58:52.569Z,67.80
2018-08-11T10:01:26.222Z,67.20
2018-08-11T10:03:54.539Z,67.50
2018-08-11T10:06:22.744Z,68.10
2018-08-11T10:08:52.956Z,67.70
2018-08-11T10:11:21.156Z,71.00
2018-08-11T10:13:49.349Z,70.20
2018-08-11T10:16:17.608Z,66.00
2018-08-11T10:18:45.778Z,64.60
2018-08-11T10:21:13.972Z,62.50
2018-08-11T10:23:42.152Z,63.70
2018-08-11T10:26:10.357Z,65.60
2018-08-11T10:28:38.521Z,67.40
2018-08-11T10:31:06.930Z,65.00
2018-08-11T10:33:35.532Z,63.50
2018-08-11T10:36:03.706Z,64.40
2018-08-11T10:38:31.904Z,62.40
2018-08-11T10:41:00.081Z,60.60
2018-08-11T10:43:28.286Z,59.80
2018-08-11T10:45:56.456Z,59.00
2018-08-11T10:48:24.627Z,58.80
2018-08-11T10:50:52.824Z,59.80
2018-08-11T10:53:21.016Z,60.60
2018-08-11T10:55:49.271Z,58.50
2018-08-11T10:58:17.396Z,59.10
2018-08-11T11:00:45.720Z,65.30
2018-08-11T11:03:14.893Z,60.60
2018-08-11T11:05:43.083Z,60.10
2018-08-11T11:08:11.257Z,59.60
2018-08-11T11:10:39.439Z,58.80
2018-08-11T11:13:07.794Z,58.20
2018-08-11T11:15:36.005Z,57.80
2018-08-11T11:18:04.169Z,58.10
2018-08-11T11:20:32.342Z,58.10
2018-08-11T11:23:00.526Z,58.80
2018-08-11T11:25:28.717Z,60.00
2018-08-11T11:27:57.019Z,60.70
2018-08-11T11:30:25.209Z,61.80
2018-08-11T11:32:53.372Z,61.90
2018-08-11T11:35:21.670Z,60.00
2018-08-11T11:37:49.905Z,57.60
2018-08-11T11:40:18.093Z,57.40
2018-08-11T11:42:46.250Z,57.00
2018-08-11T11:45:14.409Z,58.80
2018-08-11T11:47:42.588Z,59.10
2018-08-11T11:50:10.772Z,58.40
2018-08-11T11:52:38.937Z,58.40
2018-08-11T11:55:07.156Z,61.20
2018-08-11T11:57:35.395Z,59.10
2018-08-11T12:00:03.963Z,59.40
2018-08-11T12:02:32.081Z,57.80
2018-08-11T12:05:00.247Z,58.80
2018-08-11T12:07:28.428Z,57.70
2018-08-11T12:09:56.626Z,57.60
2018-08-11T12:12:24.796Z,58.20
2018-08-11T12:14:53.148Z,58.40
2018-08-11T12:17:21.320Z,56.20
2018-08-11T12:19:49.542Z,56.90
2018-08-11T12:22:18.029Z,57.60
2018-08-11T12:24:46.216Z,58.20
2018-08-11T12:27:14.503Z,56.60
2018-08-11T12:29:42.950Z,56.00
2018-08-11T12:32:11.136Z,56.00
2018-08-11T12:34:39.313Z,54.70
2018-08-11T12:37:07.490Z,54.70
2018-08-11T12:39:35.663Z,55.50
2018-08-11T12:42:03.849Z,55.60
2018-08-11T12:44:32.000Z,56.00
2018-08-11T12:47:00.263Z,54.90
2018-08-11T12:49:28.491Z,54.50
2018-08-11T12:51:56.687Z,54.60
2018-08-11T12:54:24.920Z,52.20
2018-08-11T12:56:53.184Z,51.90
2018-08-11T12:59:21.357Z,52.30
2018-08-11T13:01:49.577Z,52.10
2018-08-11T13:04:17.792Z,52.10
2018-08-11T13:06:45.972Z,53.10
2018-08-11T13:09:14.149Z,52.50
2018-08-11T13:11:42.336Z,52.10
2018-08-11T13:14:10.511Z,51.90
2018-08-11T13:16:38.700Z,52.60
2018-08-11T13:19:06.923Z,50.90
2018-08-11T13:21:35.460Z,50.50
2018-08-11T13:24:03.649Z,51.50
2018-08-11T13:26:31.845Z,50.90
2018-08-11T13:29:00.035Z,51.10
2018-08-11T13:31:28.211Z,51.50
2018-08-11T13:33:56.376Z,51.00
2018-08-11T13:36:24.539Z,51.00
2018-08-11T13:38:52.706Z,51.10
2018-08-11T13:41:20.879Z,50.70
2018-08-11T13:43:49.543Z,50.00
2018-08-11T13:46:17.801Z,50.20
2018-08-11T13:48:45.975Z,49.50
2018-08-11T13:51:14.149Z,49.70
2018-08-11T13:53:42.321Z,49.40
2018-08-11T13:56:10.500Z,47.60
2018-08-11T13:58:38.674Z,47.50
2018-08-11T14:01:07.150Z,48.50
2018-08-11T14:03:35.265Z,48.70
2018-08-11T14:06:03.460Z,48.30
2018-08-11T14:08:31.675Z,48.20
2018-08-11T14:10:59.842Z,47.80
2018-08-11T14:13:28.023Z,47.70
2018-08-11T14:15:56.199Z,47.30
2018-08-11T14:18:24.372Z,48.30
2018-08-11T14:20:52.531Z,47.60
2018-08-11T14:23:20.724Z,47.30
2018-08-11T14:25:48.984Z,46.80
2018-08-11T14:28:17.130Z,47.10
2018-08-11T14:30:45.436Z,46.90
2018-08-11T14:33:13.618Z,46.80
2018-08-11T14:35:41.776Z,46.40
2018-08-11T14:38:09.943Z,46.10
2018-08-11T14:40:38.944Z,46.20
2018-08-11T14:43:07.118Z,47.00
2018-08-11T14:45:35.299Z,47.00
2018-08-11T14:48:03.818Z,47.00
2018-08-11T14:50:32.015Z,46.40
2018-08-11T14:53:00.161Z,46.40
2018-08-11T14:55:28.313Z,46.40
2018-08-11T14:57:56.516Z,46.30
2018-08-11T15:00:24.668Z,46.80
2018-08-11T15:02:52.849Z,47.10
2018-08-11T15:05:21.307Z,47.50
2018-08-11T15:07:49.465Z,47.70
2018-08-11T15:10:17.632Z,48.10
2018-08-11T15:12:45.808Z,47.90
2018-08-11T15:15:13.971Z,47.90
2018-08-11T15:17:42.998Z,48.30
2018-08-11T15:20:11.317Z,48.60
2018-08-11T15:22:39.945Z,48.40
2018-08-11T15:25:08.752Z,47.90
2018-08-11T15:27:36.934Z,48.20
2018-08-11T15:30:06.957Z,47.70
2018-08-11T15:32:35.221Z,48.30
2018-08-11T15:35:04.428Z,49.00
2018-08-11T15:37:32.766Z,48.70
2018-08-11T15:40:00.928Z,48.80
2018-08-11T15:42:29.101Z,49.30
2018-08-11T15:44:57.314Z,49.70
2018-08-11T15:47:25.709Z,49.40
2018-08-11T15:49:53.965Z,49.30
2018-08-11T15:52:22.136Z,49.60
2018-08-11T15:54:50.376Z,49.30
2018-08-11T15:57:18.556Z,49.60
2018-08-11T15:59:46.727Z,49.70
2018-08-11T16:02:14.909Z,50.00
2018-08-11T16:04:43.188Z,49.80
2018-08-11T16:07:11.463Z,49.50
2018-08-11T16:09:39.688Z,49.40
2018-08-11T16:12:08.108Z,49.80
2018-08-11T16:14:36.292Z,49.30
2018-08-11T16:17:04.571Z,49.40
2018-08-11T16:19:32.747Z,49.30
2018-08-11T16:22:00.910Z,49.40
2018-08-11T16:24:29.077Z,49.60
2018-08-11T16:26:57.223Z,50.40
2018-08-11T16:29:25.568Z,50.20
2018-08-11T16:31:53.556Z,50.30
2018-08-11T16:34:21.792Z,50.10
2018-08-11T16:36:49.952Z,50.00
2018-08-11T16:39:18.138Z,49.90
2018-08-11T16:41:46.301Z,49.90
2018-08-11T16:44:14.516Z,49.80
2018-08-11T16:46:42.824Z,50.40
2018-08-11T16:49:11.192Z,51.20
2018-08-11T16:51:39.351Z,51.10
2018-08-11T16:54:07.559Z,50.50
2018-08-11T16:56:35.716Z,50.30
2018-08-11T16:59:04.265Z,50.30
2018-08-11T17:01:32.416Z,50.20
2018-08-11T17:04:01.050Z,50.50
2018-08-11T17:06:29.465Z,50.20
2018-08-11T17:08:57.645Z,50.10
2018-08-11T17:11:26.406Z,49.80
2018-08-11T17:13:55.379Z,49.90
2018-08-11T17:16:23.542Z,49.70
2018-08-11T17:18:51.886Z,49.10
2018-08-11T17:21:20.061Z,48.60
2018-08-11T17:23:48.235Z,46.90
2018-08-11T17:26:16.408Z,45.50
2018-08-11T17:28:44.766Z,44.50
2018-08-11T17:31:12.911Z,43.70
2018-08-11T17:33:41.078Z,43.20
2018-08-11T17:36:09.273Z,43.00
2018-08-11T17:38:37.564Z,43.20
2018-08-11T17:41:05.969Z,43.90
2018-08-11T17:43:34.184Z,44.00
2018-08-11T17:46:02.374Z,44.70
2018-08-11T17:48:30.616Z,45.50
2018-08-11T17:50:58.792Z,46.20
2018-08-11T17:53:27.172Z,47.30
2018-08-11T17:55:55.342Z,48.20
2018-08-11T17:58:23.923Z,48.60
2018-08-11T18:00:52.131Z,48.80
2018-08-11T18:03:20.336Z,49.70
2018-08-11T18:05:48.510Z,50.20
2018-08-11T18:08:16.703Z,50.70
2018-08-11T18:10:45.121Z,51.20
2018-08-11T18:13:13.289Z,51.50
2018-08-11T18:15:41.471Z,51.90
2018-08-11T18:18:09.712Z,52.20
2018-08-11T18:20:37.933Z,53.30
2018-08-11T18:23:06.574Z,53.60
2018-08-11T18:25:34.856Z,53.70
2018-08-11T18:28:02.935Z,54.00
2018-08-11T18:30:31.094Z,54.10
2018-08-11T18:32:59.284Z,54.30
2018-08-11T18:35:27.470Z,54.40
2018-08-11T18:37:55.657Z,54.70
2018-08-11T18:40:23.849Z,54.90
2018-08-11T18:42:52.012Z,55.50
2018-08-11T18:45:20.274Z,55.60
2018-08-11T18:47:48.445Z,55.80
2018-08-11T18:50:16.857Z,56.20
2018-08-11T18:52:45.051Z,56.50
2018-08-11T18:55:13.223Z,56.90
2018-08-11T18:57:44.544Z,57.40
2018-08-11T19:00:15.786Z,59.10
2018-08-11T19:02:44.449Z,59.40
2018-08-11T19:05:12.660Z,60.60
2018-08-11T19:07:40.820Z,61.50
2018-08-11T19:10:09.929Z,62.10
2018-08-11T19:12:38.780Z,62.90
2018-08-11T19:15:09.396Z,62.20
2018-08-11T19:17:37.600Z,64.00
2018-08-11T19:20:06.595Z,65.50
2018-08-11T19:22:34.756Z,65.30
2018-08-11T19:25:03.100Z,66.30
2018-08-11T19:27:31.756Z,67.80
2018-08-11T19:30:00.079Z,68.80
2018-08-11T19:32:28.265Z,70.10
2018-08-11T19:34:56.470Z,70.10
2018-08-11T19:37:24.731Z,69.40
2018-08-11T19:39:52.915Z,70.20
2018-08-11T19:42:21.111Z,72.00
2018-08-11T19:44:49.336Z,72.30
2018-08-11T19:47:17.528Z,72.70
2018-08-11T19:49:46.288Z,72.60
2018-08-11T19:52:14.753Z,73.30
2018-08-11T19:54:42.960Z,73.90
2018-08-11T19:57:11.129Z,74.90
2018-08-11T19:59:39.311Z,75.60
2018-08-11T20:02:07.645Z,76.00
2018-08-11T20:04:36.712Z,77.00
2018-08-11T20:07:05.637Z,77.10
2018-08-11T20:09:34.300Z,77.90
2018-08-11T20:12:02.558Z,78.30
2018-08-11T20:14:30.915Z,78.80
2018-08-11T20:16:59.139Z,79.30
2018-08-11T20:19:27.331Z,79.80
2018-08-11T20:21:55.469Z,80.10
2018-08-11T20:24:23.633Z,80.20
2018-08-11T20:26:51.816Z,81.10
2018-08-11T20:29:20.153Z,81.60
2018-08-11T20:31:48.356Z,82.20
2018-08-11T20:34:16.532Z,82.90
2018-08-11T20:36:44.700Z,83.50
2018-08-11T20:39:13.939Z,84.00
2018-08-11T20:41:42.117Z,84.90
2018-08-11T20:44:11.409Z,85.40
2018-08-11T20:46:39.625Z,85.80
2018-08-11T20:49:08.128Z,85.40
2018-08-11T20:51:36.599Z,85.70
2018-08-11T20:54:04.845Z,86.10
2018-08-11T20:56:33.188Z,86.00
2018-08-11T20:59:01.375Z,86.50
2018-08-11T21:01:29.620Z,87.00
2018-08-11T21:03:57.813Z,87.30
2018-08-11T21:06:25.980Z,87.60
2018-08-11T21:08:54.192Z,87.90
2018-08-11T21:11:22.424Z,88.20
2018-08-11T21:13:50.632Z,88.50
2018-08-11T21:16:18.816Z,89.20
2018-08-11T21:18:47.020Z,89.60
2018-08-11T21:21:15.201Z,90.00
2018-08-11T21:23:43.418Z,90.20
2018-08-11T21:26:11.585Z,90.30
2018-08-11T21:28:39.791Z,90.50
2018-08-11T21:31:07.973Z,90.90
2018-08-11T21:33:36.144Z,91.00
2018-08-11T21:36:04.595Z,91.00
2018-08-11T21:38:32.795Z,91.10
2018-08-11T21:41:01.218Z,91.30
2018-08-11T21:43:29.735Z,91.50
2018-08-11T21:45:57.920Z,91.90
2018-08-11T21:48:26.284Z,92.00
2018-08-11T21:50:54.483Z,92.10
2018-08-11T21:53:22.659Z,92.40
2018-08-11T21:55:50.836Z,92.50
2018-08-11T21:58:19.228Z,92.60
2018-08-11T22:00:52.832Z,92.70
2018-08-11T22:03:21.253Z,92.90
2018-08-11T22:05:49.493Z,93.20
2018-08-11T22:08:17.644Z,93.40
2018-08-11T22:10:45.829Z,93.60
2018-08-11T22:13:14.018Z,93.80
2018-08-11T22:15:42.269Z,93.80
2018-08-11T22:18:10.456Z,93.80
2018-08-11T22:20:38.636Z,93.80
2018-08-11T22:23:06.838Z,93.80
2018-08-11T22:25:34.984Z,93.80
2018-08-11T22:28:03.177Z,93.90
2018-08-11T22:30:31.368Z,94.00
2018-08-11T22:33:00.752Z,94.10
2018-08-11T22:35:28.999Z,94.00
2018-08-11T22:37:57.192Z,94.30
2018-08-11T22:40:25.728Z,94.50
2018-08-11T22:42:53.993Z,94.60
2018-08-11T22:46:51.493Z,94.60
2018-08-11T22:49:19.668Z,94.60
2018-08-11T22:51:47.852Z,94.60
2018-08-11T22:54:16.040Z,94.90
2018-08-11T22:56:44.218Z,94.80
2018-08-11T22:59:12.451Z,94.90
2018-08-11T23:01:40.693Z,94.90
2018-08-11T23:04:08.876Z,95.00
2018-08-11T23:06:37.060Z,95.00
2018-08-11T23:09:06.815Z,95.10
2018-08-11T23:11:35.032Z,95.10
2018-08-11T23:14:03.421Z,95.00
2018-08-11T23:16:31.736Z,95.00
2018-08-11T23:18:59.915Z,95.30
2018-08-11T23:21:28.353Z,95.40
2018-08-11T23:23:56.544Z,95.40
2018-08-11T23:26:24.763Z,95.30
2018-08-11T23:28:52.944Z,95.40
2018-08-11T23:31:21.108Z,95.40
2018-08-11T23:33:49.289Z,95.30
2018-08-11T23:36:17.455Z,95.30
2018-08-11T23:38:45.635Z,95.30
2018-08-11T23:41:14.082Z,95.50
2018-08-11T23:43:42.285Z,95.70
2018-08-11T23:46:10.483Z,95.70
2018-08-11T23:48:38.788Z,95.70
2018-08-11T23:51:07.276Z,95.70
2018-08-11T23:53:35.475Z,95.60
2018-08-11T23:56:03.824Z,95.80
2018-08-11T23:58:32.098Z,95.80
